Covert, MI (49043)

7:33 PM EDT on July 26, 2016 (GMT -0400)
East Paw Paw Lake | | Change Station

Elev 663 ft 42.21 °N, 86.25 °W | Updated 8 seconds ago

Clear
Clear
78.5 °F
Feels Like 81 °F
N
1.0
Wind Variable Wind from NW
Gusts 4.0 mph

Today
High -- | Low -- °F
--% Chance of Precip.
Yesterday
High -- | Low -- °F
Precip. -- in
Pressure 30.01 in
Visibility 10.0 miles
Clouds Clear
Heat Index 81 °F
Dew Point 67 °F
Humidity 67%
Rainfall 0.00 in
Snow Depth Not available.
6:32 AM 9:10 PM
Waning Gibbous, 50% visible
METAR KLWA 262315Z AUTO 33005KT 10SM CLR 26/19 A3001 RMK AO2 T02600188
Pressure 30.01 in
Visibility 10.0 miles
Clouds Clear
Heat Index 81 °F
Dew Point 67 °F
Humidity 67%
Rainfall 0.00 in
Snow Depth Not available.
6:32 AM 9:10 PM
Waning Gibbous, 50% visible
METAR KLWA 262315Z AUTO 33005KT 10SM CLR 26/19 A3001 RMK AO2 T02600188

10-Day Weather Forecast

Almanac

Astronomy

Jul. 26, 2016 Rise Set
Actual Time
Civil Twilight
Nautical Twilight
Astronomical Twilight
Moon
Length of Visible Light
Length of Day
Tomorrow will be .
, % of the Moon is Illuminated

Today's Extremes

State Highs State Lows

Community

WunderPhotos

Upload Photos

1,927,729 photos uploaded!

WunderBlog® & News

Nearby

Air Quality

  Air Quality AQ Index Pollutant
Not available.

Snow Depth

Station Depth Elevation

Earthquake Activity

City Distance Mag. Time & Date
Minimum magnitude displayed is 2.5.

Coastal Water Temperatures

Place Temperature

Stations

Nearby Weather Stations

Station Location Temp. Windchill Dew Point Humidity Wind Precip. Elev Updated Type
                   

Watches & Warnings

There are currently no watches in effect.